Time;durP1;ratioP1;P1;durP2;ratioP2;P2;SDS_P1;SDS_P2;PMS_P1;PMS_P2;Temp;Humidity;BMP_temperature;BMP_pressure;BME280_temperature;BME280_humidity;BME280_pressure;Samples;Min_cycle;Max_cycle;Signal;HPM_P1;HPM_P2
2022/05/30 00:00:27;;;;;;;4.30;1.30;;;;;;;10.84;100.00;100842.09;5151210;27;20047;-84
2022/05/30 00:02:54;;;;;;;5.13;1.33;;;;;;;10.91;100.00;100845.34;5156223;27;20472;-84
2022/05/30 00:05:23;;;;;;;5.82;1.52;;;;;;;10.74;100.00;100817.16;5134660;27;20092;-84
2022/05/30 00:07:50;;;;;;;3.83;1.55;;;;;;;10.40;100.00;100803.50;5136954;27;20401;-84
2022/05/30 00:10:19;;;;;;;4.05;1.40;;;;;;;10.81;100.00;100818.63;5138721;27;20507;-84
2022/05/30 00:12:46;;;;;;;6.47;1.63;;;;;;;10.82;100.00;100841.28;5157141;27;20121;-84
2022/05/30 00:15:17;;;;;;;6.45;1.30;;;;;;;10.76;100.00;100825.78;5150381;27;20396;-84
2022/05/30 00:17:43;;;;;;;4.40;1.30;;;;;;;10.46;100.00;100820.75;5147620;27;20130;-84
2022/05/30 00:20:11;;;;;;;3.47;1.38;;;;;;;10.54;100.00;100825.72;5148832;27;20043;-84
2022/05/30 00:22:38;;;;;;;3.97;1.40;;;;;;;10.48;100.00;100813.69;5155334;27;20079;-84
2022/05/30 00:25:06;;;;;;;5.47;1.88;;;;;;;10.29;100.00;100812.59;5155230;27;20692;-84
2022/05/30 00:27:33;;;;;;;4.97;1.48;;;;;;;10.36;100.00;100798.47;5136149;27;20051;-84
2022/05/30 00:30:00;;;;;;;4.88;1.30;;;;;;;10.23;100.00;100788.38;5134312;27;20053;-84
2022/05/30 00:32:26;;;;;;;5.47;1.35;;;;;;;10.40;100.00;100776.50;5144855;27;21965;-84
2022/05/30 00:34:53;;;;;;;6.82;1.40;;;;;;;10.26;100.00;100784.81;5152894;27;20125;-84
2022/05/30 00:37:20;;;;;;;4.07;1.30;;;;;;;10.57;100.00;100805.53;5145355;27;20043;-84
2022/05/30 00:39:47;;;;;;;7.40;1.30;;;;;;;10.63;100.00;100792.19;5153004;27;20490;-84
2022/05/30 00:42:16;;;;;;;4.00;1.48;;;;;;;10.73;100.00;100815.41;5154896;27;20061;-84
2022/05/30 00:44:46;;;;;;;5.13;1.55;;;;;;;10.22;100.00;100776.19;5150110;27;20671;-83
2022/05/30 00:47:14;;;;;;;7.72;1.70;;;;;;;10.17;100.00;100779.91;5152295;27;20047;-84
2022/05/30 00:49:43;;;;;;;5.93;1.40;;;;;;;10.31;100.00;100819.53;5156461;27;20049;-83
2022/05/30 00:52:16;;;;;;;4.10;1.30;;;;;;;10.42;100.00;100813.94;5144135;27;20046;-82
2022/05/30 00:54:47;;;;;;;7.80;1.67;;;;;;;9.62;100.00;100806.16;5149304;27;20043;-84
2022/05/30 00:57:21;;;;;;;7.50;1.48;;;;;;;9.67;100.00;100799.03;5140230;27;20054;-83
2022/05/30 00:59:51;;;;;;;6.63;1.70;;;;;;;9.56;100.00;100796.75;5135110;27;20055;-83
2022/05/30 01:02:21;;;;;;;3.65;1.13;;;;;;;9.88;100.00;100789.63;5140627;27;20456;-84
2022/05/30 01:07:37;;;;;;;5.35;1.65;;;;;;;9.82;100.00;100795.88;5145790;27;20878;-83
2022/05/30 01:10:06;;;;;;;6.70;1.75;;;;;;;9.78;100.00;100772.50;5153392;27;20413;-83
2022/05/30 01:12:39;;;;;;;4.93;1.40;;;;;;;9.86;100.00;100776.59;5150093;27;20051;-83
2022/05/30 01:15:09;;;;;;;5.03;1.40;;;;;;;9.75;100.00;100772.63;5147705;27;20669;-83
2022/05/30 01:17:47;;;;;;;5.13;1.40;;;;;;;9.91;100.00;100784.25;5136414;27;20058;-83
2022/05/30 01:20:33;;;;;;;9.98;2.50;;;;;;;9.86;100.00;100760.88;5139887;27;20050;-83
2022/05/30 01:23:27;;;;;;;9.10;1.73;;;;;;;9.85;100.00;100785.31;5146833;27;20400;-83
2022/05/30 01:26:27;;;;;;;8.75;1.60;;;;;;;10.19;100.00;100772.84;5145302;27;20476;-83
2022/05/30 01:29:12;;;;;;;3.83;1.30;;;;;;;10.23;100.00;100777.94;5133957;27;20047;-84
2022/05/30 01:31:39;;;;;;;9.50;1.70;;;;;;;10.15;100.00;100784.34;5140872;27;20047;-83
2022/05/30 01:34:06;;;;;;;6.05;1.63;;;;;;;9.45;100.00;100725.66;5153945;27;20051;-83
2022/05/30 01:36:34;;;;;;;9.10;1.80;;;;;;;10.05;100.00;100771.56;5138427;27;20055;-83
2022/05/30 01:39:01;;;;;;;7.00;1.42;;;;;;;9.94;100.00;100737.06;5145472;27;20051;-83
2022/05/30 01:41:27;;;;;;;8.63;1.65;;;;;;;9.98;100.00;100756.97;5142364;27;20047;-83
2022/05/30 01:43:55;;;;;;;6.72;2.33;;;;;;;9.99;100.00;100763.94;5145471;27;20043;-84
2022/05/30 01:46:22;;;;;;;4.25;1.23;;;;;;;9.85;100.00;100727.78;5149674;27;20050;-82
2022/05/30 01:48:50;;;;;;;3.22;1.30;;;;;;;10.21;100.00;100756.16;5151507;27;20229;-83
2022/05/30 01:51:19;;;;;;;7.07;1.40;;;;;;;10.12;100.00;100737.34;5153489;27;20453;-83
2022/05/30 01:53:46;;;;;;;4.32;1.40;;;;;;;10.30;100.00;100741.91;5153508;27;20053;-84
2022/05/30 01:56:17;;;;;;;3.60;1.27;;;;;;;10.05;100.00;100700.06;5151531;27;20053;-84
2022/05/30 01:58:44;;;;;;;4.80;1.38;;;;;;;10.16;100.00;100737.16;5138932;27;20477;-84
2022/05/30 02:01:16;;;;;;;4.93;1.40;;;;;;;10.18;100.00;100739.72;5140934;27;20046;-83
2022/05/30 02:03:47;;;;;;;5.83;1.70;;;;;;;9.96;100.00;100713.50;5143647;27;20038;-83
2022/05/30 02:06:14;;;;;;;8.35;1.95;;;;;;;10.15;100.00;100730.25;5141545;27;20047;-84
2022/05/30 02:08:42;;;;;;;4.45;1.60;;;;;;;10.06;100.00;100727.94;5140181;27;20043;-83
2022/05/30 02:11:10;;;;;;;3.40;1.50;;;;;;;10.25;100.00;100718.53;5151436;27;20039;-84
2022/05/30 02:13:38;;;;;;;4.90;1.60;;;;;;;10.10;100.00;100692.06;5142494;27;20049;-83
2022/05/30 02:18:55;;;;;;;3.92;1.20;;;;;;;10.16;100.00;100718.00;5143224;27;20707;-83
2022/05/30 02:21:21;;;;;;;5.68;1.50;;;;;;;10.11;100.00;100693.75;5131871;27;20061;-83
2022/05/30 02:23:48;;;;;;;6.35;1.75;;;;;;;10.27;100.00;100708.84;5146349;27;20071;-83
2022/05/30 02:26:15;;;;;;;3.30;1.20;;;;;;;10.51;100.00;100711.50;5134116;27;20388;-83
2022/05/30 02:28:42;;;;;;;4.45;1.40;;;;;;;10.18;100.00;100675.19;5151390;27;20089;-84
2022/05/30 02:31:09;;;;;;;8.50;2.05;;;;;;;10.40;100.00;100709.28;5137427;27;20061;-83
2022/05/30 02:36:39;;;;;;;6.78;1.50;;;;;;;10.38;100.00;100708.50;5132448;27;20050;-84
2022/05/30 02:39:27;;;;;;;5.10;1.20;;;;;;;10.06;100.00;100676.47;5136065;27;20061;-83
2022/05/30 02:41:55;;;;;;;3.78;1.33;;;;;;;10.15;100.00;100679.69;5134314;27;20043;-83
2022/05/30 02:44:24;;;;;;;3.72;1.35;;;;;;;10.25;100.00;100668.81;5132126;27;20051;-83
2022/05/30 02:46:54;;;;;;;7.55;1.50;;;;;;;10.03;100.00;100699.28;5147250;27;21418;-83
2022/05/30 02:49:21;;;;;;;4.90;1.45;;;;;;;10.01;100.00;100694.09;5151672;27;20450;-83
2022/05/30 02:51:49;;;;;;;4.13;1.27;;;;;;;10.11;100.00;100680.69;5137906;27;20047;-83
2022/05/30 02:54:16;;;;;;;5.95;1.30;;;;;;;9.97;100.00;100686.41;5139099;27;20111;-83
2022/05/30 02:56:49;;;;;;;5.32;1.60;;;;;;;9.87;100.00;100694.59;5149657;27;20054;-83
2022/05/30 02:59:16;;;;;;;3.55;1.20;;;;;;;10.19;100.00;100684.72;5149209;27;20056;-83
2022/05/30 03:01:43;;;;;;;5.60;1.42;;;;;;;9.98;100.00;100668.03;5140826;27;20061;-83
2022/05/30 03:04:10;;;;;;;5.50;1.30;;;;;;;9.97;100.00;100640.19;5140771;27;20066;-84
2022/05/30 03:06:37;;;;;;;4.70;1.40;;;;;;;10.46;100.00;100684.63;5152310;27;20051;-84
2022/05/30 03:09:05;;;;;;;2.95;1.20;;;;;;;10.29;100.00;100660.81;5153462;27;20381;-84
2022/05/30 03:11:32;;;;;;;2.97;1.33;;;;;;;10.24;100.00;100653.16;5152274;27;20046;-83
2022/05/30 03:13:59;;;;;;;3.75;1.35;;;;;;;10.07;100.00;100633.72;5151757;27;20042;-83
2022/05/30 03:16:26;;;;;;;4.72;1.30;;;;;;;10.30;100.00;100675.63;5146363;27;20053;-84
2022/05/30 03:18:54;;;;;;;2.50;1.17;;;;;;;10.45;100.00;100664.63;5149643;27;20046;-83
2022/05/30 03:21:20;;;;;;;3.92;1.20;;;;;;;10.20;100.00;100638.50;5149525;27;20039;-83
2022/05/30 03:23:47;;;;;;;2.83;1.10;;;;;;;10.11;100.00;100647.53;5153349;27;20046;-83
2022/05/30 03:26:16;;;;;;;3.83;1.27;;;;;;;10.26;100.00;100665.28;5151612;27;20042;-84
2022/05/30 03:28:43;;;;;;;4.50;1.23;;;;;;;10.40;100.00;100659.56;5133399;27;20051;-82
2022/05/30 03:31:10;;;;;;;3.38;1.40;;;;;;;10.39;100.00;100649.13;5142213;27;20647;-83
2022/05/30 03:33:39;;;;;;;4.32;1.15;;;;;;;10.51;100.00;100659.13;5156490;27;20053;-83
2022/05/30 03:36:22;;;;;;;5.93;1.40;;;;;;;10.21;100.00;100609.63;5152232;27;20798;-84
2022/05/30 03:38:49;;;;;;;4.25;1.27;;;;;;;10.15;100.00;100602.03;5155334;27;20046;-83
2022/05/30 03:41:16;;;;;;;7.15;1.30;;;;;;;10.59;100.00;100649.22;5148004;27;20049;-84
2022/05/30 03:43:42;;;;;;;4.88;1.63;;;;;;;10.49;100.00;100631.31;5145368;27;20054;-83
2022/05/30 03:46:09;;;;;;;3.38;1.30;;;;;;;10.40;100.00;100611.59;5135535;27;20047;-83
2022/05/30 03:48:37;;;;;;;4.95;1.10;;;;;;;10.39;100.00;100630.81;5151557;27;20042;-84
2022/05/30 03:51:12;;;;;;;7.35;1.42;;;;;;;10.62;100.00;100637.78;5147095;27;20043;-83
2022/05/30 03:53:40;;;;;;;9.35;1.33;;;;;;;10.34;100.00;100635.38;5138872;27;20047;-83
2022/05/30 03:56:08;;;;;;;4.05;1.33;;;;;;;10.46;100.00;100637.53;5153112;27;20046;-84
2022/05/30 03:58:34;;;;;;;5.22;1.17;;;;;;;10.31;100.00;100598.84;5155724;27;20047;-83
2022/05/30 04:01:05;;;;;;;3.42;1.10;;;;;;;10.42;100.00;100599.28;5155771;27;20069;-84
2022/05/30 04:03:32;;;;;;;4.80;1.35;;;;;;;9.97;100.00;100574.81;5149087;27;20050;-84
2022/05/30 04:05:59;;;;;;;2.05;0.98;;;;;;;10.30;100.00;100610.22;5147080;27;20050;-84
2022/05/30 04:08:26;;;;;;;7.55;1.40;;;;;;;10.16;100.00;100598.50;5137965;27;20043;-84
2022/05/30 04:10:52;;;;;;;3.42;1.10;;;;;;;10.36;100.00;100630.97;5144345;27;20047;-83
2022/05/30 04:13:19;;;;;;;6.50;1.45;;;;;;;10.15;100.00;100585.50;5138547;27;20035;-84
2022/05/30 04:15:46;;;;;;;6.07;1.30;;;;;;;10.24;100.00;100599.06;5155056;27;20489;-84
2022/05/30 04:18:13;;;;;;;3.40;1.20;;;;;;;10.59;100.00;100609.13;5150620;27;20126;-84
2022/05/30 04:20:41;;;;;;;3.47;1.17;;;;;;;10.38;100.00;100582.03;5147959;27;20050;-83
2022/05/30 04:23:08;;;;;;;5.78;1.27;;;;;;;10.46;100.00;100627.03;5156887;27;20065;-84
2022/05/30 04:25:35;;;;;;;5.63;1.42;;;;;;;10.07;100.00;100594.50;5154759;27;20055;-83
2022/05/30 04:28:02;;;;;;;3.50;1.08;;;;;;;10.25;100.00;100592.94;5141514;27;20051;-83
2022/05/30 04:30:29;;;;;;;4.65;1.30;;;;;;;10.38;100.00;100629.97;5153684;27;20047;-82
2022/05/30 04:32:56;;;;;;;1.60;1.05;;;;;;;10.17;100.00;100601.97;5155455;27;20043;-83
2022/05/30 04:35:23;;;;;;;4.00;1.25;;;;;;;10.02;100.00;100583.34;5156518;27;20472;-83
2022/05/30 04:37:50;;;;;;;4.40;1.23;;;;;;;10.27;100.00;100621.66;5153605;27;20074;-82
2022/05/30 04:40:20;;;;;;;3.65;1.33;;;;;;;10.40;100.00;100627.31;5151229;27;20061;-83
2022/05/30 04:42:47;;;;;;;3.88;1.20;;;;;;;10.06;100.00;100589.31;5155627;27;20054;-83
2022/05/30 04:45:14;;;;;;;2.38;1.10;;;;;;;10.15;100.00;100619.50;5149982;27;20125;-83
2022/05/30 04:47:41;;;;;;;2.13;1.00;;;;;;;10.03;100.00;100597.25;5147734;27;20129;-82
2022/05/30 04:50:13;;;;;;;6.00;1.30;;;;;;;9.79;100.00;100583.31;5153629;27;20053;-82
2022/05/30 04:52:42;;;;;;;3.67;1.50;;;;;;;10.22;100.00;100611.34;5147379;27;20496;-83
2022/05/30 04:55:10;;;;;;;2.95;1.10;;;;;;;10.04;100.00;100604.22;5146857;27;20051;-82
2022/05/30 04:57:46;;;;;;;4.93;1.20;;;;;;;9.94;100.00;100569.69;5139859;27;20043;-83
2022/05/30 05:00:17;;;;;;;2.08;1.10;;;;;;;9.92;100.00;100605.50;5134028;27;20039;-83
2022/05/30 05:02:44;;;;;;;1.45;1.00;;;;;;;9.70;100.00;100576.66;5147656;27;20057;-82
2022/05/30 05:05:11;;;;;;;3.47;1.15;;;;;;;9.80;100.00;100596.34;5154730;27;20066;-83
2022/05/30 05:07:49;;;;;;;3.92;1.38;;;;;;;10.12;100.00;100603.91;5150305;27;20054;-83
2022/05/30 05:11:05;;;;;;;3.33;1.20;;;;;;;10.12;100.00;100596.06;5154313;27;20056;-83
2022/05/30 05:13:31;;;;;;;1.95;1.00;;;;;;;9.92;100.00;100592.44;5139030;27;20042;-83
2022/05/30 05:16:05;;;;;;;5.38;1.40;;;;;;;10.07;100.00;100596.22;5155401;27;20063;-83
2022/05/30 05:18:32;;;;;;;3.83;1.38;;;;;;;10.05;100.00;100577.13;5151097;27;20720;-83
2022/05/30 05:20:58;;;;;;;3.67;1.20;;;;;;;10.20;100.00;100587.00;5138811;27;20387;-83
2022/05/30 05:23:26;;;;;;;3.42;1.10;;;;;;;10.15;100.00;100581.09;5143535;27;20062;-83
2022/05/30 05:25:52;;;;;;;4.80;1.23;;;;;;;10.18;100.00;100562.69;5141637;27;20086;-83
2022/05/30 05:28:19;;;;;;;3.03;1.17;;;;;;;10.27;100.00;100583.25;5143642;27;20057;-83
2022/05/30 05:30:46;;;;;;;4.32;1.20;;;;;;;10.16;100.00;100588.03;5147973;27;20408;-82
2022/05/30 05:33:16;;;;;;;2.70;1.17;;;;;;;9.91;100.00;100556.72;5143742;27;20552;-82
2022/05/30 05:35:46;;;;;;;5.35;1.17;;;;;;;10.19;100.00;100566.13;5143032;27;20057;-83
2022/05/30 05:38:14;;;;;;;2.67;1.10;;;;;;;10.42;100.00;100592.28;5142066;27;20044;-81
2022/05/30 05:40:45;;;;;;;2.47;1.00;;;;;;;10.43;100.00;100575.69;5144302;27;20055;-81
2022/05/30 05:43:12;;;;;;;3.35;1.20;;;;;;;10.16;100.00;100548.78;5147100;27;20118;-81
2022/05/30 05:45:41;;;;;;;2.67;1.33;;;;;;;10.41;100.00;100577.50;5156605;27;20050;-81
2022/05/30 05:48:08;;;;;;;3.20;1.23;;;;;;;10.38;100.00;100574.16;5146015;27;20096;-83
2022/05/30 05:50:40;;;;;;;4.32;1.30;;;;;;;10.48;100.00;100585.09;5144465;27;20051;-82
2022/05/30 05:53:08;;;;;;;4.65;1.55;;;;;;;10.35;100.00;100576.91;5141332;27;20047;-83
2022/05/30 05:55:37;;;;;;;4.00;1.55;;;;;;;10.59;100.00;100577.69;5142103;27;20054;-83
2022/05/30 05:58:05;;;;;;;6.35;2.05;;;;;;;10.38;100.00;100580.25;5143913;27;20051;-81
2022/05/30 06:00:33;;;;;;;5.25;1.90;;;;;;;10.50;100.00;100586.78;5141371;27;20050;-81
2022/05/30 06:03:00;;;;;;;6.30;2.35;;;;;;;10.35;100.00;100582.13;5145057;27;20046;-83
2022/05/30 06:05:27;;;;;;;6.63;2.38;;;;;;;10.49;100.00;100582.44;5141383;27;20082;-84
2022/05/30 06:07:53;;;;;;;5.07;1.90;;;;;;;10.48;100.00;100565.00;5139778;27;20047;-83
2022/05/30 06:10:21;;;;;;;3.55;1.30;;;;;;;10.38;100.00;100551.44;5144215;27;20382;-83
2022/05/30 06:12:48;;;;;;;4.25;1.63;;;;;;;10.54;100.00;100561.31;5143888;27;20481;-83
2022/05/30 06:15:17;;;;;;;7.50;1.98;;;;;;;10.35;100.00;100579.50;5150034;27;20047;-84
2022/05/30 06:17:45;;;;;;;4.32;1.10;;;;;;;10.54;100.00;100579.66;5142320;27;20047;-84
2022/05/30 06:20:15;;;;;;;2.08;1.00;;;;;;;10.83;100.00;100591.53;5144872;27;20096;-83
2022/05/30 06:22:41;;;;;;;2.17;1.00;;;;;;;10.74;100.00;100586.69;5144424;27;20480;-83
2022/05/30 06:25:08;;;;;;;2.72;1.00;;;;;;;10.85;100.00;100587.09;5141722;27;20047;-83
2022/05/30 06:27:35;;;;;;;3.92;1.10;;;;;;;10.79;100.00;100569.03;5141312;27;20058;-84
2022/05/30 06:30:03;;;;;;;2.85;1.00;;;;;;;10.88;100.00;100581.72;5143033;27;20769;-85
2022/05/30 06:32:29;;;;;;;3.47;1.00;;;;;;;11.05;100.00;100577.56;5143483;27;20051;-84
2022/05/30 06:34:56;;;;;;;2.33;0.90;;;;;;;11.00;100.00;100577.75;5145133;27;20370;-84
2022/05/30 06:37:23;;;;;;;1.83;0.85;;;;;;;10.97;100.00;100583.13;5144589;27;20047;-84
2022/05/30 06:39:52;;;;;;;2.63;1.05;;;;;;;11.06;100.00;100590.59;5143159;27;20381;-83
2022/05/30 06:42:19;;;;;;;1.67;1.00;;;;;;;11.10;100.00;100584.31;5142373;27;20046;-83
2022/05/30 06:44:45;;;;;;;4.20;1.00;;;;;;;10.77;100.00;100581.34;5142217;27;20490;-84
2022/05/30 06:47:12;;;;;;;6.28;1.48;;;;;;;10.31;100.00;100530.81;5142234;27;20054;-84
2022/05/30 06:49:39;;;;;;;2.45;1.10;;;;;;;10.31;100.00;100541.28;5145920;27;20061;-84
2022/05/30 06:52:08;;;;;;;2.03;1.05;;;;;;;10.51;100.00;100564.91;5144807;27;20055;-84
2022/05/30 06:54:35;;;;;;;3.03;1.17;;;;;;;10.54;100.00;100549.06;5142848;27;20056;-84
2022/05/30 06:59:48;;;;;;;1.92;0.90;;;;;;;10.75;100.00;100554.38;5141037;27;20111;-83
2022/05/30 07:02:17;;;;;;;2.50;1.00;;;;;;;10.95;100.00;100585.81;5137583;27;20047;-82
2022/05/30 07:04:43;;;;;;;2.40;1.00;;;;;;;10.94;100.00;100549.19;5137637;27;20043;-82
2022/05/30 07:07:10;;;;;;;4.90;1.35;;;;;;;11.09;100.00;100566.03;5133913;27;20043;-83
2022/05/30 07:09:38;;;;;;;2.97;1.20;;;;;;;10.99;100.00;100568.19;5133228;27;20053;-82
2022/05/30 07:12:06;;;;;;;1.80;0.98;;;;;;;11.06;100.00;100548.66;5137449;27;20043;-82
2022/05/30 07:14:32;;;;;;;1.83;0.90;;;;;;;11.17;100.00;100559.56;5138645;27;20051;-82
2022/05/30 07:16:59;;;;;;;2.13;0.80;;;;;;;11.47;100.00;100569.59;5143259;27;20123;-82
2022/05/30 07:19:26;;;;;;;3.35;1.27;;;;;;;10.95;100.00;100556.16;5150686;27;20051;-82
2022/05/30 07:21:53;;;;;;;2.47;1.10;;;;;;;10.91;100.00;100555.41;5150107;27;20061;-82
2022/05/30 07:24:19;;;;;;;3.08;1.00;;;;;;;11.22;100.00;100572.44;5139602;27;20599;-82
2022/05/30 07:26:46;;;;;;;1.95;1.00;;;;;;;10.92;100.00;100578.06;5137356;27;20046;-82
2022/05/30 07:29:13;;;;;;;6.57;1.15;;;;;;;11.09;100.00;100564.28;5139507;27;20042;-83
2022/05/30 07:31:39;;;;;;;2.25;1.00;;;;;;;11.01;100.00;100569.84;5137820;27;20060;-82
2022/05/30 07:34:06;;;;;;;1.45;0.88;;;;;;;11.35;100.00;100584.13;5137624;27;20445;-81
2022/05/30 07:36:33;;;;;;;5.18;1.00;;;;;;;11.39;100.00;100576.97;5148160;27;20046;-82
2022/05/30 07:39:00;;;;;;;3.85;1.10;;;;;;;11.18;100.00;100574.34;5142114;27;20054;-82
2022/05/30 07:41:29;;;;;;;1.67;0.88;;;;;;;10.92;100.00;100549.25;5131318;27;20053;-82
2022/05/30 07:43:56;;;;;;;2.85;1.10;;;;;;;11.00;100.00;100536.69;5144781;27;20054;-82
2022/05/30 07:46:23;;;;;;;1.83;0.90;;;;;;;11.69;100.00;100584.41;5140942;27;20051;-82
2022/05/30 07:48:51;;;;;;;3.53;0.90;;;;;;;11.43;100.00;100554.09;5154678;27;20472;-82
2022/05/30 07:51:18;;;;;;;3.53;1.08;;;;;;;11.66;100.00;100572.28;5135353;27;20051;-82
2022/05/30 07:53:45;;;;;;;1.75;0.80;;;;;;;11.63;100.00;100553.22;5145046;27;20043;-83
2022/05/30 07:56:17;;;;;;;2.88;0.90;;;;;;;11.47;100.00;100560.91;5146060;27;20054;-82
2022/05/30 07:58:45;;;;;;;3.65;1.10;;;;;;;11.51;100.00;100557.22;5136044;27;20082;-82
2022/05/30 08:01:18;;;;;;;2.00;1.00;;;;;;;11.50;100.00;100573.88;5152751;27;20126;-82
2022/05/30 08:03:46;;;;;;;;;;;;;;;11.82;100.00;100568.97;5147652;27;20045;-82
2022/05/30 08:06:19;;;;;;;1.98;0.90;;;;;;;11.96;100.00;100564.81;5140054;27;19923;-81
2022/05/30 08:08:47;;;;;;;2.33;0.90;;;;;;;11.77;100.00;100564.78;5144252;27;20050;-82
2022/05/30 08:11:15;;;;;;;1.58;0.75;;;;;;;11.65;100.00;100562.72;5138489;27;20507;-82
2022/05/30 08:13:45;;;;;;;1.25;0.82;;;;;;;11.85;100.00;100551.31;5144596;27;20069;-82
2022/05/30 08:16:16;;;;;;;1.63;0.80;;;;;;;11.72;100.00;100555.41;5141584;27;20142;-82
2022/05/30 08:19:07;;;;;;;2.88;1.05;;;;;;;11.48;100.00;100567.88;5135959;27;20049;-82
2022/05/30 08:22:02;;;;;;;5.28;1.50;;;;;;;11.58;100.00;100569.16;5152105;27;20054;-82
2022/05/30 08:24:34;;;;;;;6.97;1.70;;;;;;;11.49;100.00;100559.06;5142734;27;20053;-82
2022/05/30 08:27:03;;;;;;;5.97;2.03;;;;;;;11.37;100.00;100545.59;5144632;27;20051;-82
2022/05/30 08:29:30;;;;;;;4.20;1.33;;;;;;;11.09;100.00;100531.97;5143759;27;20407;-82
2022/05/30 08:31:57;;;;;;;2.33;1.10;;;;;;;11.67;100.00;100552.13;5156781;27;20051;-82
2022/05/30 08:34:24;;;;;;;5.25;1.50;;;;;;;11.90;100.00;100565.13;5145700;27;20422;-82
2022/05/30 08:36:52;;;;;;;4.28;1.35;;;;;;;11.94;100.00;100555.31;5141832;27;20045;-82
2022/05/30 08:42:04;;;;;;;5.35;1.73;;;;;;;12.18;100.00;100549.84;5150525;27;20387;-83
2022/05/30 08:44:33;;;;;;;3.50;1.30;;;;;;;11.89;100.00;100537.13;5144649;27;20056;-83
2022/05/30 08:47:20;;;;;;;4.72;1.35;;;;;;;12.09;100.00;100540.63;5144638;27;20042;-83
2022/05/30 08:49:50;;;;;;;3.33;1.10;;;;;;;11.85;100.00;100546.06;5148444;27;20055;-83
2022/05/30 08:52:55;;;;;;;2.70;1.02;;;;;;;12.26;100.00;100560.84;5149248;27;20051;-83
2022/05/30 08:55:55;;;;;;;3.22;1.05;;;;;;;12.47;100.00;100545.84;5087933;27;20047;-83
2022/05/30 08:58:46;;;;;;;6.45;1.42;;;;;;;12.45;100.00;100558.19;5134857;27;20043;-83
2022/05/30 09:01:20;;;;;;;4.82;1.50;;;;;;;12.25;100.00;100549.50;5149656;27;20399;-82
2022/05/30 09:04:16;;;;;;;6.68;1.40;;;;;;;12.13;100.00;100550.09;5144932;27;20069;-83
2022/05/30 09:06:56;;;;;;;3.45;1.15;;;;;;;12.04;100.00;100563.59;5143851;27;20095;-83
2022/05/30 09:09:31;;;;;;;4.78;1.42;;;;;;;12.46;100.00;100560.72;5137001;27;20043;-83
2022/05/30 09:12:22;;;;;;;2.05;0.90;;;;;;;12.27;100.00;100552.91;5155289;27;20055;-83
2022/05/30 09:14:55;;;;;;;2.50;1.05;;;;;;;11.78;100.00;100542.03;5148001;27;20516;-83
2022/05/30 09:17:35;;;;;;;3.90;1.13;;;;;;;12.12;100.00;100530.00;5134534;27;20575;-83
2022/05/30 09:20:08;;;;;;;1.85;0.98;;;;;;;11.97;100.00;100544.69;5135637;27;20043;-83
2022/05/30 09:22:38;;;;;;;4.20;1.65;;;;;;;12.63;100.00;100540.69;5155727;27;20134;-82
2022/05/30 09:28:03;;;;;;;3.45;1.10;;;;;;;12.53;100.00;100520.09;5146616;27;20054;-83
2022/05/30 09:30:46;;;;;;;1.75;0.90;;;;;;;12.82;100.00;100530.97;5149555;27;20056;-83
2022/05/30 09:33:33;;;;;;;2.13;1.00;;;;;;;12.60;100.00;100525.06;5154156;27;20111;-83
2022/05/30 09:36:21;;;;;;;3.47;1.13;;;;;;;12.56;100.00;100510.41;5150215;27;20039;-81
2022/05/30 09:38:55;;;;;;;2.17;1.00;;;;;;;12.59;100.00;100532.13;5157472;27;20055;-82
2022/05/30 09:41:46;;;;;;;2.75;1.10;;;;;;;12.75;100.00;100526.06;5135246;27;20047;-82
2022/05/30 09:44:22;;;;;;;4.00;1.23;;;;;;;12.71;100.00;100531.50;5144062;27;20487;-84
2022/05/30 09:47:06;;;;;;;5.80;1.40;;;;;;;12.24;100.00;100526.78;5140244;27;20046;-85
2022/05/30 09:49:36;;;;;;;2.50;1.17;;;;;;;12.23;100.00;100542.59;5137347;27;20396;-85
2022/05/30 09:52:22;;;;;;;5.03;1.05;;;;;;;12.26;100.00;100530.19;5136940;27;20047;-84
2022/05/30 09:54:49;;;;;;;1.40;0.90;;;;;;;12.79;100.00;100504.84;5142788;27;20134;-83
2022/05/30 09:57:21;;;;;;;2.13;1.10;;;;;;;12.75;100.00;100494.56;5137943;27;20043;-83
2022/05/30 09:59:50;;;;;;;2.70;1.10;;;;;;;12.59;100.00;100526.88;5141444;27;20064;-83
2022/05/30 10:02:28;;;;;;;3.05;1.40;;;;;;;13.04;100.00;100543.84;5153825;27;20050;-83
2022/05/30 10:05:07;;;;;;;1.40;0.80;;;;;;;13.25;100.00;100534.03;5146485;27;20043;-83
2022/05/30 10:07:44;;;;;;;4.18;1.00;;;;;;;12.80;100.00;100535.47;5134670;27;20049;-83
2022/05/30 10:10:21;;;;;;;1.10;0.80;;;;;;;13.40;100.00;100534.19;5133273;27;20047;-83
2022/05/30 10:13:06;;;;;;;1.38;0.80;;;;;;;13.35;100.00;100494.13;5143042;27;20044;-83
2022/05/30 10:15:37;;;;;;;1.90;1.00;;;;;;;13.26;100.00;100548.88;5135799;27;20040;-83
2022/05/30 10:18:13;;;;;;;1.55;0.82;;;;;;;13.50;100.00;100539.81;5134896;27;20480;-83
2022/05/30 10:21:07;;;;;;;2.60;0.98;;;;;;;12.67;100.00;100535.19;5139456;27;20051;-83
2022/05/30 10:30:28;;;;;;;1.63;0.80;;;;;;;13.13;100.00;100531.19;5133923;27;20477;-83
2022/05/30 10:32:55;;;;;;;2.20;1.08;;;;;;;13.15;100.00;100538.06;5152599;27;20055;-84
2022/05/30 10:35:42;;;;;;;1.33;0.80;;;;;;;13.69;100.00;100514.22;5153206;27;20047;-84
2022/05/30 10:38:21;;;;;;;1.33;0.88;;;;;;;13.85;100.00;100524.78;5152336;27;20050;-84
2022/05/30 10:40:54;;;;;;;2.13;1.00;;;;;;;13.71;100.00;100525.50;5151162;27;20053;-84
2022/05/30 10:43:24;;;;;;;1.60;0.88;;;;;;;14.17;100.00;100525.63;5154347;27;20043;-84
2022/05/30 10:46:03;;;;;;;2.97;0.90;;;;;;;13.53;100.00;100516.84;5133484;27;20043;-84
2022/05/30 10:48:37;;;;;;;2.78;1.05;;;;;;;13.48;100.00;100535.47;5143336;27;20423;-84
2022/05/30 10:51:26;;;;;;;2.88;0.98;;;;;;;13.07;100.00;100540.25;5138796;27;20047;-82
2022/05/30 10:54:30;;;;;;;1.50;0.80;;;;;;;12.86;100.00;100514.13;5150659;27;20145;-82
2022/05/30 10:57:08;;;;;;;4.10;1.02;;;;;;;12.95;100.00;100536.44;5123013;27;20057;-82
2022/05/30 10:59:56;;;;;;;1.20;0.70;;;;;;;13.22;100.00;100530.69;5147200;27;20052;-82
2022/05/30 11:02:31;;;;;;;3.00;0.80;;;;;;;13.58;100.00;100533.22;5152916;27;20492;-83
2022/05/30 11:05:01;;;;;;;1.30;0.70;;;;;;;13.55;100.00;100522.84;5143879;27;20381;-83
2022/05/30 11:07:46;;;;;;;2.15;0.90;;;;;;;13.54;100.00;100530.81;5143347;27;20580;-83
2022/05/30 11:10:32;;;;;;;0.95;0.80;;;;;;;13.56;100.00;100528.94;5145925;27;20076;-83
2022/05/30 11:13:20;;;;;;;0.82;0.80;;;;;;;14.11;100.00;100523.34;5132470;27;20131;-82
2022/05/30 11:16:14;;;;;;;0.93;0.70;;;;;;;13.93;100.00;100521.72;5136532;27;20053;-84
2022/05/30 11:19:08;;;;;;;1.35;0.70;;;;;;;14.40;100.00;100519.03;5152128;27;20091;-85
2022/05/30 11:22:00;;;;;;;2.47;0.93;;;;;;;14.44;100.00;100525.81;5143729;27;20047;-83
2022/05/30 11:24:27;;;;;;;0.70;0.70;;;;;;;14.15;100.00;100505.59;5139532;27;20058;-85
2022/05/30 11:27:06;;;;;;;0.93;0.70;;;;;;;14.24;100.00;100532.22;5144523;27;20049;-85
2022/05/30 11:30:05;;;;;;;0.63;0.60;;;;;;;13.68;100.00;100508.09;5147248;27;20049;-84
2022/05/30 11:32:32;;;;;;;0.90;0.70;;;;;;;13.71;100.00;100533.41;5138513;27;20043;-83
2022/05/30 11:35:27;;;;;;;2.85;0.80;;;;;;;13.76;100.00;100536.63;5152393;27;20545;-82
2022/05/30 11:38:13;;;;;;;1.05;0.70;;;;;;;13.62;100.00;100536.53;5134545;27;20057;-82
2022/05/30 11:41:14;;;;;;;1.15;0.70;;;;;;;13.75;100.00;100539.34;5150713;27;20453;-82
2022/05/30 11:44:02;;;;;;;1.83;1.00;;;;;;;13.27;100.00;100541.84;5151374;27;20043;-83
2022/05/30 11:46:52;;;;;;;1.27;0.80;;;;;;;13.24;100.00;100541.97;5139808;27;20616;-82
2022/05/30 11:49:34;;;;;;;0.70;0.70;;;;;;;13.05;100.00;100544.69;5153158;27;20099;-83
2022/05/30 11:52:28;;;;;;;2.40;0.77;;;;;;;13.38;100.00;100541.31;5144084;27;20053;-84
2022/05/30 11:55:37;;;;;;;1.52;0.80;;;;;;;13.15;100.00;100532.78;5145466;27;20053;-84
2022/05/30 11:58:26;;;;;;;3.22;0.80;;;;;;;13.63;100.00;100525.94;5072411;28;20111;-83
2022/05/30 12:00:55;;;;;;;2.33;1.13;;;;;;;13.65;100.00;100529.31;5136212;27;20055;-84
2022/05/30 12:03:43;;;;;;;1.98;0.90;;;;;;;14.06;100.00;100530.63;5156012;27;20512;-84
2022/05/30 12:06:28;;;;;;;1.20;0.70;;;;;;;13.77;100.00;100522.53;5146771;27;20039;-83